createdAt,value
2022-12-25T00:00:36.590Z,-18
2022-12-25T00:01:42.874Z,-18
2022-12-25T00:02:48.157Z,-18
2022-12-25T00:03:54.429Z,-19
2022-12-25T00:05:00.721Z,-19
2022-12-25T00:06:06.973Z,-18
2022-12-25T00:07:13.249Z,-17
2022-12-25T00:08:19.517Z,-20
2022-12-25T00:09:25.814Z,-18
2022-12-25T00:10:32.058Z,-18
2022-12-25T00:11:38.335Z,-18
2022-12-25T00:12:44.602Z,-18
2022-12-25T00:13:50.885Z,-18
2022-12-25T00:14:57.158Z,-19
2022-12-25T00:16:03.423Z,-18
2022-12-25T00:17:08.716Z,-16
2022-12-25T00:18:14.987Z,-19
2022-12-25T00:19:21.249Z,-18
2022-12-25T00:20:27.528Z,-19
2022-12-25T00:21:33.801Z,-20
2022-12-25T00:22:40.067Z,-19
2022-12-25T00:23:46.349Z,-18
2022-12-25T00:24:52.668Z,-18
2022-12-25T00:25:58.891Z,-19
2022-12-25T00:27:05.279Z,-18
2022-12-25T00:28:11.429Z,-18
2022-12-25T00:29:17.763Z,-18
2022-12-25T00:30:23.983Z,-18
2022-12-25T00:31:29.275Z,-19
2022-12-25T00:32:35.540Z,-18
2022-12-25T00:33:41.808Z,-19
2022-12-25T00:34:48.076Z,-19
2022-12-25T00:35:54.356Z,-20
2022-12-25T00:37:00.626Z,-19
2022-12-25T00:38:06.900Z,-20
2022-12-25T00:39:13.169Z,-18
2022-12-25T00:40:19.445Z,-19
2022-12-25T00:41:25.712Z,-19
2022-12-25T00:42:32.032Z,-18
2022-12-25T00:43:38.334Z,-19
2022-12-25T00:44:44.549Z,-20
2022-12-25T00:45:49.823Z,-18
2022-12-25T00:46:56.125Z,-20
2022-12-25T00:48:02.430Z,-18
2022-12-25T00:49:08.697Z,-18
2022-12-25T00:50:14.907Z,-19
2022-12-25T00:51:21.212Z,-19
2022-12-25T00:52:27.516Z,-19
2022-12-25T00:53:33.723Z,-19
2022-12-25T00:54:40.003Z,-19
2022-12-25T00:55:46.267Z,-18
2022-12-25T00:56:52.582Z,-19
2022-12-25T00:57:58.818Z,-18
2022-12-25T00:59:05.134Z,-19
2022-12-25T01:00:10.421Z,-19
2022-12-25T01:01:16.644Z,-19
2022-12-25T01:02:22.918Z,-19
2022-12-25T01:03:29.206Z,-18
2022-12-25T01:04:35.473Z,-18
2022-12-25T01:05:41.732Z,-18
2022-12-25T01:06:48.000Z,-19
2022-12-25T01:07:54.274Z,-19
2022-12-25T01:09:00.547Z,-18
2022-12-25T01:10:06.831Z,-18
2022-12-25T01:11:13.105Z,-21
2022-12-25T01:12:19.369Z,-18
2022-12-25T01:13:25.644Z,-18
2022-12-25T01:14:30.926Z,-18
2022-12-25T01:15:37.195Z,-18
2022-12-25T01:16:43.471Z,-18
2022-12-25T01:17:49.744Z,-19
2022-12-25T01:18:56.013Z,-19
2022-12-25T01:20:02.292Z,-17
2022-12-25T01:21:08.573Z,-18
2022-12-25T01:22:14.832Z,-19
2022-12-25T01:23:21.107Z,-19
2022-12-25T01:24:27.413Z,-19
2022-12-25T01:25:33.658Z,-18
2022-12-25T01:26:39.918Z,-18
2022-12-25T01:27:46.196Z,-18
2022-12-25T01:28:51.479Z,-18
2022-12-25T01:29:57.762Z,-18
2022-12-25T01:31:04.044Z,-17
2022-12-25T01:32:10.305Z,-18
2022-12-25T01:33:16.573Z,-18
2022-12-25T01:34:22.849Z,-19
2022-12-25T01:35:29.109Z,-18
2022-12-25T01:36:35.386Z,-18
2022-12-25T01:37:41.719Z,-18
2022-12-25T01:38:47.948Z,-18
2022-12-25T01:39:54.231Z,-18
2022-12-25T01:41:00.475Z,-18
2022-12-25T01:42:06.742Z,-18
2022-12-25T01:43:12.029Z,-18
2022-12-25T01:44:18.340Z,-18
2022-12-25T01:45:24.577Z,-18
2022-12-25T01:46:30.836Z,-18
2022-12-25T01:47:37.120Z,-18
2022-12-25T01:48:43.389Z,-18
2022-12-25T01:49:49.658Z,-18
2022-12-25T01:50:55.940Z,-18
2022-12-25T01:52:02.205Z,-18
2022-12-25T01:53:08.534Z,-18
2022-12-25T01:54:14.749Z,-18
2022-12-25T01:55:21.024Z,-18
2022-12-25T01:56:27.299Z,-18
2022-12-25T01:57:32.582Z,-18
2022-12-25T01:58:38.857Z,-18
2022-12-25T01:59:45.130Z,-18
2022-12-25T02:00:51.407Z,-18
2022-12-25T02:01:57.679Z,-18
2022-12-25T02:03:03.944Z,-18
2022-12-25T02:04:10.214Z,-18
2022-12-25T02:05:16.498Z,-17
2022-12-25T02:06:22.762Z,-19
2022-12-25T02:07:29.034Z,-18
2022-12-25T02:08:35.310Z,-18
2022-12-25T02:09:41.568Z,-18
2022-12-25T02:10:47.859Z,-19
2022-12-25T02:11:53.139Z,-18
2022-12-25T02:12:59.428Z,-18
2022-12-25T02:14:05.679Z,-18
2022-12-25T02:15:11.959Z,-18
2022-12-25T02:16:18.220Z,-18
2022-12-25T02:17:24.501Z,-18
2022-12-25T02:18:30.774Z,-19
2022-12-25T02:19:37.103Z,-18
2022-12-25T02:20:43.316Z,-19
2022-12-25T02:21:49.582Z,-18
2022-12-25T02:22:55.858Z,-18
2022-12-25T02:24:02.148Z,-18
2022-12-25T02:25:08.403Z,-18
2022-12-25T02:26:13.689Z,-18
2022-12-25T02:27:19.968Z,-19
2022-12-25T02:28:26.246Z,-18
2022-12-25T02:29:32.506Z,-18
2022-12-25T02:30:38.770Z,-18
2022-12-25T02:31:45.058Z,-17
2022-12-25T02:32:51.330Z,-19
2022-12-25T02:33:57.596Z,-18
2022-12-25T02:35:03.871Z,-18
2022-12-25T02:36:10.135Z,-17
2022-12-25T02:37:16.418Z,-18
2022-12-25T02:38:22.690Z,-18
2022-12-25T02:39:28.960Z,-19
2022-12-25T02:40:34.251Z,-18
2022-12-25T02:41:40.518Z,-18
2022-12-25T02:42:46.789Z,-17
2022-12-25T02:43:53.087Z,-18
2022-12-25T02:44:59.333Z,-18
2022-12-25T02:46:05.606Z,-18
2022-12-25T02:47:11.880Z,-18
2022-12-25T02:48:18.152Z,-18
2022-12-25T02:49:24.418Z,-18
2022-12-25T02:50:30.702Z,-17
2022-12-25T02:51:36.973Z,-19
2022-12-25T02:52:43.249Z,-19
2022-12-25T02:53:49.512Z,-18
2022-12-25T02:54:54.805Z,-18
2022-12-25T02:56:01.070Z,-18
2022-12-25T02:57:07.348Z,-19
2022-12-25T02:58:13.615Z,-18
2022-12-25T02:59:19.892Z,-17
2022-12-25T03:00:26.189Z,-17
2022-12-25T03:01:31.460Z,-16
2022-12-25T03:02:37.723Z,-17
2022-12-25T03:03:43.993Z,-16
2022-12-25T03:04:50.266Z,-17
2022-12-25T03:05:56.549Z,-18
2022-12-25T03:07:02.823Z,-21
2022-12-25T03:08:09.153Z,-20
2022-12-25T03:09:15.371Z,-18
2022-12-25T03:10:21.628Z,-17
2022-12-25T03:11:27.909Z,-18
2022-12-25T03:12:34.175Z,-18
2022-12-25T03:13:40.453Z,-19
2022-12-25T03:14:46.722Z,-17
2022-12-25T03:15:52.015Z,-18
2022-12-25T03:16:58.279Z,-18
2022-12-25T03:18:04.558Z,-18
2022-12-25T03:19:10.821Z,-19
2022-12-25T03:20:17.100Z,-18
2022-12-25T03:21:23.377Z,-18
2022-12-25T03:22:29.645Z,-18
2022-12-25T03:23:35.946Z,-18
2022-12-25T03:24:42.185Z,-17
2022-12-25T03:25:48.455Z,-18
2022-12-25T03:26:54.740Z,-18
2022-12-25T03:28:01.010Z,-18
2022-12-25T03:29:07.278Z,-18
2022-12-25T03:30:12.563Z,-17
2022-12-25T03:31:18.852Z,-18
2022-12-25T03:32:25.128Z,-18
2022-12-25T03:33:31.378Z,-18
2022-12-25T03:34:37.667Z,-18
2022-12-25T03:35:43.918Z,-18
2022-12-25T03:36:50.202Z,-17
2022-12-25T03:37:56.464Z,-16
2022-12-25T03:39:02.750Z,-17
2022-12-25T03:40:09.014Z,-17
2022-12-25T03:41:15.293Z,-18
2022-12-25T03:42:21.585Z,-19
2022-12-25T03:43:27.848Z,-18
2022-12-25T03:44:33.122Z,-18
2022-12-25T03:45:39.393Z,-18
2022-12-25T03:46:45.658Z,-18
2022-12-25T03:47:51.935Z,-18
2022-12-25T03:48:58.224Z,-19
2022-12-25T03:50:04.519Z,-20
2022-12-25T03:51:10.756Z,-18
2022-12-25T03:52:17.026Z,-18
2022-12-25T03:53:23.295Z,-18
2022-12-25T03:54:29.569Z,-18
2022-12-25T03:55:35.845Z,-18
2022-12-25T03:56:42.137Z,-18
2022-12-25T03:57:48.393Z,-18
2022-12-25T03:58:53.673Z,-18
2022-12-25T03:59:59.946Z,-18
2022-12-25T04:01:06.214Z,-17
2022-12-25T04:02:12.487Z,-18
2022-12-25T04:03:18.767Z,-18
2022-12-25T04:04:25.035Z,-18
2022-12-25T04:05:31.303Z,-18
2022-12-25T04:06:37.589Z,-18
2022-12-25T04:07:43.861Z,-19
2022-12-25T04:08:50.123Z,-18
2022-12-25T04:09:56.413Z,-18
2022-12-25T04:11:02.668Z,-16
2022-12-25T04:12:08.946Z,-18
2022-12-25T04:13:14.241Z,-18
2022-12-25T04:14:19.524Z,-18
2022-12-25T04:15:25.798Z,-18
2022-12-25T04:16:32.102Z,-18
2022-12-25T04:17:38.346Z,-18
2022-12-25T04:18:44.619Z,-18
2022-12-25T04:19:49.924Z,-18
2022-12-25T04:20:55.195Z,-18
2022-12-25T04:22:01.488Z,-18
2022-12-25T04:23:07.760Z,-18
2022-12-25T04:24:14.012Z,-18
2022-12-25T04:25:20.293Z,-18
2022-12-25T04:26:26.564Z,-18
2022-12-25T04:27:32.834Z,-18
2022-12-25T04:28:39.107Z,-16
2022-12-25T04:29:45.382Z,-18
2022-12-25T04:30:51.650Z,-18
2022-12-25T04:31:57.924Z,-18
2022-12-25T04:33:04.202Z,-19
2022-12-25T04:34:10.470Z,-18
2022-12-25T04:35:15.751Z,-19
2022-12-25T04:36:22.030Z,-18
2022-12-25T04:37:28.305Z,-18
2022-12-25T04:38:34.572Z,-18
2022-12-25T04:39:40.846Z,-19
2022-12-25T04:40:47.118Z,-17
2022-12-25T04:41:53.389Z,-18
2022-12-25T04:42:59.662Z,-18
2022-12-25T04:44:05.933Z,-18
2022-12-25T04:45:12.209Z,-18
2022-12-25T04:46:18.486Z,-18
2022-12-25T04:47:24.751Z,-18
2022-12-25T04:48:31.024Z,-18
2022-12-25T04:49:36.320Z,-19
2022-12-25T04:50:42.589Z,-18
2022-12-25T04:51:48.861Z,-18
2022-12-25T04:52:55.132Z,-19
2022-12-25T04:54:01.400Z,-18
2022-12-25T04:55:07.679Z,-18
2022-12-25T04:56:13.946Z,-19
2022-12-25T04:57:20.218Z,-19
2022-12-25T04:58:26.494Z,-18
2022-12-25T04:59:32.771Z,-16
2022-12-25T05:00:39.032Z,-18
2022-12-25T05:01:45.309Z,-19
2022-12-25T05:02:51.575Z,-18
2022-12-25T05:03:56.865Z,-18
2022-12-25T05:06:09.407Z,-18
2022-12-25T05:07:15.684Z,-18
2022-12-25T05:08:21.982Z,-18
2022-12-25T05:09:28.227Z,-18
2022-12-25T05:10:34.500Z,-18
2022-12-25T05:11:40.762Z,-18
2022-12-25T05:12:47.042Z,-18
2022-12-25T05:13:53.320Z,-18
2022-12-25T05:14:59.589Z,-18
2022-12-25T05:16:05.865Z,-19
2022-12-25T05:17:12.140Z,-18
2022-12-25T05:18:17.421Z,-19
2022-12-25T05:19:22.719Z,-17
2022-12-25T05:20:28.035Z,-20
2022-12-25T05:21:34.278Z,-18
2022-12-25T05:22:40.562Z,-18
2022-12-25T05:23:46.826Z,-17
2022-12-25T05:24:53.125Z,-19
2022-12-25T05:25:59.372Z,-20
2022-12-25T05:27:05.647Z,-18
2022-12-25T05:28:11.911Z,-18
2022-12-25T05:29:18.181Z,-18
2022-12-25T05:30:24.460Z,-18
2022-12-25T05:31:30.733Z,-18
2022-12-25T05:32:36.026Z,-19
2022-12-25T05:33:41.323Z,-18
2022-12-25T05:34:47.593Z,-17
2022-12-25T05:35:53.903Z,-18
2022-12-25T05:37:00.136Z,-19
2022-12-25T05:38:06.403Z,-19
2022-12-25T05:39:12.734Z,-19
2022-12-25T05:40:18.947Z,-17
2022-12-25T05:41:25.236Z,-18
2022-12-25T05:42:31.519Z,-18
2022-12-25T05:43:37.767Z,-18
2022-12-25T05:44:44.038Z,-18
2022-12-25T05:45:50.309Z,-18
2022-12-25T05:46:56.621Z,-18
2022-12-25T05:48:01.871Z,-18
2022-12-25T05:49:08.203Z,-17
2022-12-25T05:50:14.425Z,-18
2022-12-25T05:51:20.693Z,-18
2022-12-25T05:52:26.959Z,-18
2022-12-25T05:53:33.226Z,-18
2022-12-25T05:54:39.511Z,-18
2022-12-25T05:55:45.778Z,-18
2022-12-25T05:56:52.079Z,-17
2022-12-25T05:57:58.327Z,-19
2022-12-25T05:59:04.616Z,-18
2022-12-25T06:00:10.861Z,-16
2022-12-25T06:01:17.135Z,-18
2022-12-25T06:02:22.415Z,-18
2022-12-25T06:03:28.700Z,-18
2022-12-25T06:04:34.992Z,-18
2022-12-25T06:05:41.241Z,-18
2022-12-25T06:06:47.524Z,-20
2022-12-25T06:07:53.783Z,-18
2022-12-25T06:09:00.081Z,-18
2022-12-25T06:10:06.334Z,-18
2022-12-25T06:11:12.595Z,-18
2022-12-25T06:12:18.868Z,-19
2022-12-25T06:13:25.177Z,-18
2022-12-25T06:14:31.460Z,-18
2022-12-25T06:15:37.689Z,-18
2022-12-25T06:16:42.973Z,-18
2022-12-25T06:17:49.259Z,-19
2022-12-25T06:18:55.516Z,-18
2022-12-25T06:20:01.798Z,-18
2022-12-25T06:21:08.087Z,-18
2022-12-25T06:22:14.339Z,-17
2022-12-25T06:23:20.764Z,-18
2022-12-25T06:24:26.940Z,-17
2022-12-25T06:25:33.151Z,-18
2022-12-25T06:26:39.465Z,-18
2022-12-25T06:27:45.728Z,-19
2022-12-25T06:28:51.975Z,-18
2022-12-25T06:29:58.333Z,-18
2022-12-25T06:31:03.570Z,-19
2022-12-25T06:32:09.821Z,-18
2022-12-25T06:33:16.078Z,-17
2022-12-25T06:34:22.373Z,-18
2022-12-25T06:35:28.613Z,-19
2022-12-25T06:36:34.906Z,-19
2022-12-25T06:37:41.176Z,-18
2022-12-25T06:38:47.437Z,-18
2022-12-25T06:39:53.799Z,-18
2022-12-25T06:41:00.034Z,-18
2022-12-25T06:42:06.253Z,-18
2022-12-25T06:43:11.569Z,-18
2022-12-25T06:45:24.094Z,-18
2022-12-25T06:46:30.435Z,-19
2022-12-25T06:47:36.661Z,-20
2022-12-25T06:48:42.915Z,-19
2022-12-25T06:49:49.185Z,-18
2022-12-25T06:50:55.473Z,-18
2022-12-25T06:52:01.728Z,-18
2022-12-25T06:53:07.992Z,-18
2022-12-25T06:54:14.312Z,-18
2022-12-25T06:55:20.540Z,-18
2022-12-25T06:56:26.817Z,-17
2022-12-25T06:57:32.111Z,-18
2022-12-25T06:58:38.390Z,-18
2022-12-25T06:59:44.653Z,-18
2022-12-25T07:00:50.913Z,-19
2022-12-25T07:01:57.196Z,-20
2022-12-25T07:03:03.469Z,-18
2022-12-25T07:04:09.739Z,-18
2022-12-25T07:05:16.005Z,-18
2022-12-25T07:06:22.275Z,-18
2022-12-25T07:07:28.585Z,-19
2022-12-25T07:08:34.820Z,-18
2022-12-25T07:09:41.096Z,-19
2022-12-25T07:10:47.371Z,-18
2022-12-25T07:11:52.735Z,-18
2022-12-25T07:12:58.935Z,-18
2022-12-25T07:14:05.203Z,-18
2022-12-25T07:15:11.494Z,-18
2022-12-25T07:16:17.740Z,-17
2022-12-25T07:17:24.112Z,-18
2022-12-25T07:18:30.301Z,-18
2022-12-25T07:19:36.557Z,-18
2022-12-25T07:20:42.841Z,-18
2022-12-25T07:21:49.177Z,-18
2022-12-25T07:22:55.379Z,-18
2022-12-25T07:24:01.652Z,-18
2022-12-25T07:25:07.988Z,-19
2022-12-25T07:26:13.209Z,-17
2022-12-25T07:27:19.489Z,-18
2022-12-25T07:28:25.778Z,-18
2022-12-25T07:29:32.027Z,-18
2022-12-25T07:30:38.378Z,-18
2022-12-25T07:31:44.598Z,-18
2022-12-25T07:32:50.849Z,-19
2022-12-25T07:33:57.119Z,-18
2022-12-25T07:35:03.403Z,-18
2022-12-25T07:36:09.660Z,-19
2022-12-25T07:37:15.947Z,-18
2022-12-25T07:38:22.217Z,-18
2022-12-25T07:39:28.525Z,-18
2022-12-25T07:40:33.803Z,-18
2022-12-25T07:41:40.097Z,-20
2022-12-25T07:42:46.362Z,-19
2022-12-25T07:43:52.583Z,-20
2022-12-25T07:44:58.856Z,-18
2022-12-25T07:46:05.124Z,-19
2022-12-25T07:47:11.404Z,-19
2022-12-25T07:48:17.680Z,-18
2022-12-25T07:49:23.940Z,-18
2022-12-25T07:50:30.220Z,-18
2022-12-25T07:51:36.527Z,-18
2022-12-25T07:52:42.820Z,-19
2022-12-25T07:53:49.108Z,-18
2022-12-25T07:54:54.401Z,-18
2022-12-25T07:56:00.685Z,-18
2022-12-25T07:57:06.871Z,-18
2022-12-25T07:58:13.181Z,-18
2022-12-25T07:59:19.524Z,-16
2022-12-25T08:00:25.784Z,-18
2022-12-25T08:01:32.032Z,-18
2022-12-25T08:02:38.280Z,-20
2022-12-25T08:03:44.677Z,-18
2022-12-25T08:04:50.919Z,-19
2022-12-25T08:05:57.181Z,-18
2022-12-25T08:08:09.587Z,-20
2022-12-25T08:09:14.961Z,-18
2022-12-25T08:10:21.150Z,-18
2022-12-25T08:11:27.423Z,-18
2022-12-25T08:12:33.710Z,-18
2022-12-25T08:13:39.973Z,-19
2022-12-25T08:14:46.279Z,-18
2022-12-25T08:15:52.515Z,-19
2022-12-25T08:16:58.783Z,-18
2022-12-25T08:18:05.083Z,-18
2022-12-25T08:19:11.365Z,-18
2022-12-25T08:20:17.599Z,-18
2022-12-25T08:21:23.931Z,-17
2022-12-25T08:22:30.245Z,-17
2022-12-25T08:23:35.489Z,-18
2022-12-25T08:24:41.831Z,-18
2022-12-25T08:25:48.050Z,-17
2022-12-25T08:26:54.330Z,-18
2022-12-25T08:28:00.618Z,-17
2022-12-25T08:29:06.927Z,-16
2022-12-25T08:30:13.187Z,-17
2022-12-25T08:31:19.402Z,-17
2022-12-25T08:32:25.643Z,-18
2022-12-25T08:33:31.877Z,-17
2022-12-25T08:34:38.164Z,-17
2022-12-25T08:35:44.422Z,-16
2022-12-25T08:36:50.790Z,-17
2022-12-25T08:37:56.123Z,-17
2022-12-25T08:39:02.359Z,-17
2022-12-25T08:40:08.621Z,-16
2022-12-25T08:41:14.845Z,-18
2022-12-25T08:42:21.081Z,-18
2022-12-25T08:43:27.348Z,-17
2022-12-25T08:44:33.706Z,-18
2022-12-25T08:45:39.965Z,-18
2022-12-25T08:46:46.254Z,-18
2022-12-25T08:47:52.467Z,-18
2022-12-25T08:48:58.793Z,-16
2022-12-25T08:50:05.010Z,-17
2022-12-25T08:51:11.316Z,-16
2022-12-25T08:52:16.624Z,-18
2022-12-25T08:53:22.962Z,-17
2022-12-25T08:54:29.156Z,-18
2022-12-25T08:55:35.347Z,-18
2022-12-25T08:56:41.708Z,-17
2022-12-25T08:57:47.984Z,-17
2022-12-25T08:58:54.217Z,-18
2022-12-25T09:00:00.560Z,-17
2022-12-25T09:01:06.775Z,-16
2022-12-25T09:02:13.069Z,-16
2022-12-25T09:03:19.485Z,-16
2022-12-25T09:04:25.678Z,-17
2022-12-25T09:05:31.915Z,-17
2022-12-25T09:06:37.214Z,-17
2022-12-25T09:07:43.447Z,-18
2022-12-25T09:08:49.701Z,-17
2022-12-25T09:09:56.008Z,-18
2022-12-25T09:11:02.227Z,-16
2022-12-25T09:12:08.454Z,-17
2022-12-25T09:13:14.759Z,-18
2022-12-25T09:14:21.102Z,-16
2022-12-25T09:15:27.450Z,-18
2022-12-25T09:16:33.660Z,-18
2022-12-25T09:17:39.807Z,-16
2022-12-25T09:18:46.217Z,-17
2022-12-25T09:19:52.398Z,-17
2022-12-25T09:20:57.776Z,-18
2022-12-25T09:22:04.004Z,-17
2022-12-25T09:23:10.200Z,-17
2022-12-25T09:24:16.472Z,-17
2022-12-25T09:25:22.731Z,-17
2022-12-25T09:26:29.027Z,-18
2022-12-25T09:27:35.300Z,-17
2022-12-25T09:28:41.664Z,-18
2022-12-25T09:30:54.096Z,-16
2022-12-25T09:32:00.371Z,-17
2022-12-25T09:33:06.650Z,-17
2022-12-25T09:34:12.951Z,-18
2022-12-25T09:35:18.241Z,-17
2022-12-25T09:36:24.582Z,-17
2022-12-25T09:37:30.864Z,-17
2022-12-25T09:38:37.092Z,-17
2022-12-25T09:39:43.381Z,-17
2022-12-25T09:40:49.602Z,-17
2022-12-25T09:41:55.840Z,-18
2022-12-25T09:43:02.104Z,-17
2022-12-25T09:44:08.449Z,-18
2022-12-25T09:45:14.782Z,-18
2022-12-25T09:46:20.961Z,-18
2022-12-25T09:47:27.267Z,-18
2022-12-25T09:48:33.472Z,-17
2022-12-25T09:49:38.785Z,-17
2022-12-25T09:50:45.135Z,-17
2022-12-25T09:51:51.304Z,-16
2022-12-25T09:52:57.671Z,-15
2022-12-25T09:54:03.875Z,-16
2022-12-25T09:55:10.159Z,-16
2022-12-25T09:56:16.421Z,-17
2022-12-25T09:57:22.712Z,-16
2022-12-25T09:58:28.996Z,-16
2022-12-25T09:59:35.215Z,-15
2022-12-25T10:00:41.495Z,-15
2022-12-25T10:01:47.764Z,-15
2022-12-25T10:02:54.027Z,-16
2022-12-25T10:03:59.314Z,-17
2022-12-25T10:05:05.677Z,-16
2022-12-25T10:06:11.879Z,-16
2022-12-25T10:07:18.132Z,-15
2022-12-25T10:08:24.454Z,-17
2022-12-25T10:09:30.740Z,-16
2022-12-25T10:10:36.951Z,-16
2022-12-25T10:11:43.220Z,-17
2022-12-25T10:12:49.576Z,-15
2022-12-25T10:13:55.767Z,-16
2022-12-25T10:15:02.033Z,-15
2022-12-25T10:16:08.392Z,-16
2022-12-25T10:17:14.595Z,-15
2022-12-25T10:18:19.869Z,-17
2022-12-25T10:19:26.171Z,-16
2022-12-25T10:20:32.410Z,-15
2022-12-25T10:21:38.685Z,-15
2022-12-25T10:22:45.005Z,-15
2022-12-25T10:23:51.307Z,-15
2022-12-25T10:24:56.604Z,-15
2022-12-25T10:26:02.788Z,-16
2022-12-25T10:27:09.111Z,-16
2022-12-25T10:28:15.414Z,-15
2022-12-25T10:29:21.614Z,-17
2022-12-25T10:30:27.877Z,-16
2022-12-25T10:31:34.193Z,-16
2022-12-25T10:32:40.423Z,-17
2022-12-25T10:33:46.698Z,-15
2022-12-25T10:34:52.970Z,-16
2022-12-25T10:35:59.234Z,-17
2022-12-25T10:37:05.586Z,-16
2022-12-25T10:38:11.838Z,-16
2022-12-25T10:39:17.093Z,-16
2022-12-25T10:40:23.356Z,-16
2022-12-25T10:41:29.630Z,-15
2022-12-25T10:42:35.906Z,-15
2022-12-25T10:43:42.179Z,-16
2022-12-25T10:44:48.438Z,-16
2022-12-25T10:45:54.748Z,-15
2022-12-25T10:47:00.977Z,-15
2022-12-25T10:48:07.250Z,-15
2022-12-25T10:49:13.520Z,-14
2022-12-25T10:50:19.785Z,-15
2022-12-25T10:51:26.064Z,-15
2022-12-25T10:53:38.735Z,-15
2022-12-25T10:54:43.967Z,-15
2022-12-25T10:55:50.215Z,-15
2022-12-25T10:56:56.464Z,-16
2022-12-25T10:58:02.824Z,-15
2022-12-25T10:59:09.013Z,-15
2022-12-25T11:00:15.327Z,-15
2022-12-25T11:01:21.557Z,-14
2022-12-25T11:02:27.815Z,-18
2022-12-25T11:03:34.106Z,-15
2022-12-25T11:04:40.348Z,-16
2022-12-25T11:05:46.645Z,-15
2022-12-25T11:06:52.886Z,-15
2022-12-25T11:07:59.176Z,-15
2022-12-25T11:09:04.476Z,-14
2022-12-25T11:10:10.722Z,-15
2022-12-25T11:11:16.992Z,-15
2022-12-25T11:12:23.281Z,-14
2022-12-25T11:13:29.595Z,-15
2022-12-25T11:14:35.852Z,-14
2022-12-25T11:15:42.085Z,-15
2022-12-25T11:16:48.531Z,-15
2022-12-25T11:17:54.706Z,-15
2022-12-25T11:19:01.022Z,-15
2022-12-25T11:20:07.255Z,-15
2022-12-25T11:21:13.523Z,-15
2022-12-25T11:22:19.841Z,-14
2022-12-25T11:23:25.027Z,-14
2022-12-25T11:24:31.314Z,-13
2022-12-25T11:25:37.616Z,-15
2022-12-25T11:26:43.958Z,-15
2022-12-25T11:27:50.255Z,-14
2022-12-25T11:28:56.465Z,-15
2022-12-25T11:30:02.794Z,-14
2022-12-25T11:31:08.910Z,-14
2022-12-25T11:32:15.328Z,-15
2022-12-25T11:33:21.540Z,-15
2022-12-25T11:34:27.810Z,-15
2022-12-25T11:35:34.022Z,-14
2022-12-25T11:36:40.288Z,-15
2022-12-25T11:37:45.585Z,-13
2022-12-25T11:38:51.960Z,-14
2022-12-25T11:39:58.245Z,-13
2022-12-25T11:41:04.433Z,-14
2022-12-25T11:42:10.728Z,-13
2022-12-25T11:43:16.926Z,-13
2022-12-25T11:44:23.213Z,-15
2022-12-25T11:45:29.475Z,-12
2022-12-25T11:46:35.740Z,-12
2022-12-25T11:47:42.020Z,-14
2022-12-25T11:48:48.286Z,-13
2022-12-25T11:49:54.557Z,-13
2022-12-25T11:51:00.934Z,-13
2022-12-25T11:52:06.157Z,-13
2022-12-25T11:53:12.401Z,-14
2022-12-25T11:54:18.737Z,-13
2022-12-25T11:55:24.941Z,-12
2022-12-25T11:56:31.263Z,-12
2022-12-25T11:57:37.553Z,-15
2022-12-25T11:58:43.752Z,-14
2022-12-25T11:59:50.168Z,-14
2022-12-25T12:00:56.313Z,-12
2022-12-25T12:02:02.611Z,-14
2022-12-25T12:03:08.956Z,-14
2022-12-25T12:04:15.229Z,-13
2022-12-25T12:05:21.471Z,-12
2022-12-25T12:06:26.795Z,-13
2022-12-25T12:07:32.945Z,-14
2022-12-25T12:08:39.232Z,-12
2022-12-25T12:09:45.499Z,-13
2022-12-25T12:10:51.834Z,-12
2022-12-25T12:11:58.037Z,-12
2022-12-25T12:13:04.307Z,-13
2022-12-25T12:14:10.632Z,-13
2022-12-25T12:16:23.141Z,-14
2022-12-25T12:17:29.441Z,-13
2022-12-25T12:18:35.697Z,-13
2022-12-25T12:19:41.945Z,-13
2022-12-25T12:20:47.239Z,-13
2022-12-25T12:21:53.496Z,-14
2022-12-25T12:22:59.767Z,-13
2022-12-25T12:24:06.050Z,-15
2022-12-25T12:25:12.309Z,-12
2022-12-25T12:26:18.595Z,-12
2022-12-25T12:27:24.947Z,-14
2022-12-25T12:28:31.133Z,-13
2022-12-25T12:29:37.516Z,-12
2022-12-25T12:30:43.680Z,-12
2022-12-25T12:31:49.945Z,-12
2022-12-25T12:32:56.307Z,-13
2022-12-25T12:34:02.560Z,-12
2022-12-25T12:35:07.781Z,-11
2022-12-25T12:36:14.058Z,-12
2022-12-25T12:37:20.319Z,-12
2022-12-25T12:38:26.670Z,-12
2022-12-25T12:39:32.874Z,-11
2022-12-25T12:40:39.207Z,-12
2022-12-25T12:41:45.441Z,-11
2022-12-25T12:42:51.858Z,-13
2022-12-25T12:43:57.988Z,-11
2022-12-25T12:45:04.226Z,-12
2022-12-25T12:46:10.550Z,-12
2022-12-25T12:47:16.773Z,-12
2022-12-25T12:48:23.081Z,-10
2022-12-25T12:49:29.445Z,-12
2022-12-25T12:50:34.615Z,-12
2022-12-25T12:51:40.887Z,-12
2022-12-25T12:52:47.151Z,-12
2022-12-25T12:53:53.428Z,-12
2022-12-25T12:54:59.725Z,-12
2022-12-25T12:56:05.962Z,-12
2022-12-25T12:57:12.295Z,-13
2022-12-25T12:58:18.515Z,-13
2022-12-25T12:59:24.777Z,-12
2022-12-25T13:00:31.075Z,-13
2022-12-25T13:01:37.328Z,-12
2022-12-25T13:02:43.665Z,-12
2022-12-25T13:03:49.887Z,-12
2022-12-25T13:04:55.177Z,-12
2022-12-25T13:06:01.429Z,-12
2022-12-25T13:07:07.707Z,-12
2022-12-25T13:08:13.977Z,-13
2022-12-25T13:09:20.244Z,-12
2022-12-25T13:10:26.667Z,-13
2022-12-25T13:11:32.825Z,-12
2022-12-25T13:12:39.183Z,-12
2022-12-25T13:13:45.338Z,-12
2022-12-25T13:14:51.633Z,-15
2022-12-25T13:15:57.907Z,-12
2022-12-25T13:17:04.161Z,-12
2022-12-25T13:18:10.426Z,-13
2022-12-25T13:19:15.797Z,-12
2022-12-25T13:20:21.992Z,-12
2022-12-25T13:22:34.556Z,-12
2022-12-25T13:23:40.856Z,-13
2022-12-25T13:24:47.110Z,-12
2022-12-25T13:25:53.347Z,-12
2022-12-25T13:26:59.693Z,-13
2022-12-25T13:28:05.942Z,-12
2022-12-25T13:29:12.188Z,-11
2022-12-25T13:30:18.444Z,-12
2022-12-25T13:31:24.713Z,-12
2022-12-25T13:32:31.106Z,-12
2022-12-25T13:33:36.327Z,-12
2022-12-25T13:34:42.640Z,-13
2022-12-25T13:35:48.816Z,-12
2022-12-25T13:36:55.089Z,-12
2022-12-25T13:38:01.394Z,-13
2022-12-25T13:39:07.686Z,-14
2022-12-25T13:40:13.906Z,-13
2022-12-25T13:41:20.223Z,-13
2022-12-25T13:42:26.451Z,-13
2022-12-25T13:43:32.720Z,-12
2022-12-25T13:44:39.044Z,-13
2022-12-25T13:45:45.265Z,-12
2022-12-25T13:46:51.536Z,-14
2022-12-25T13:47:56.904Z,-12
2022-12-25T13:49:03.223Z,-14
2022-12-25T13:50:09.453Z,-15
2022-12-25T13:51:15.676Z,-12
2022-12-25T13:52:21.928Z,-13
2022-12-25T13:53:28.246Z,-12
2022-12-25T13:54:34.458Z,-14
2022-12-25T13:55:40.730Z,-15
2022-12-25T13:56:47.013Z,-14
2022-12-25T13:57:53.272Z,-15
2022-12-25T13:58:59.649Z,-14
2022-12-25T14:00:05.819Z,-15
2022-12-25T14:01:12.112Z,-13
2022-12-25T14:02:17.418Z,-14
2022-12-25T14:03:23.645Z,-14
2022-12-25T14:04:29.927Z,-14
2022-12-25T14:05:36.216Z,-13
2022-12-25T14:06:41.485Z,-14
2022-12-25T14:07:47.760Z,-16
2022-12-25T14:08:54.035Z,-14
2022-12-25T14:10:00.304Z,-14
2022-12-25T14:11:06.592Z,-15
2022-12-25T14:12:12.854Z,-13
2022-12-25T14:13:19.126Z,-14
2022-12-25T14:14:25.407Z,-15
2022-12-25T14:15:31.683Z,-14
2022-12-25T14:16:37.937Z,-14
2022-12-25T14:17:44.212Z,-15
2022-12-25T14:18:50.476Z,-15
2022-12-25T14:19:56.763Z,-15
2022-12-25T14:21:02.083Z,-15
2022-12-25T14:22:08.318Z,-15
2022-12-25T14:23:14.596Z,-15
2022-12-25T14:24:20.913Z,-15
2022-12-25T14:25:27.137Z,-15
2022-12-25T14:26:33.495Z,-16
2022-12-25T14:27:39.688Z,-15
2022-12-25T14:28:45.966Z,-15
2022-12-25T14:29:52.293Z,-15
2022-12-25T14:30:58.550Z,-17
2022-12-25T14:32:04.853Z,-15
2022-12-25T14:33:11.038Z,-15
2022-12-25T14:34:17.323Z,-15
2022-12-25T14:35:22.603Z,-16
2022-12-25T14:36:28.899Z,-15
2022-12-25T14:37:35.159Z,-15
2022-12-25T14:38:41.415Z,-16
2022-12-25T14:39:47.827Z,-15
2022-12-25T14:40:53.971Z,-15
2022-12-25T14:42:00.258Z,-16
2022-12-25T14:43:06.562Z,-16
2022-12-25T14:45:19.095Z,-16
2022-12-25T14:46:25.322Z,-13
2022-12-25T14:47:31.717Z,-16
2022-12-25T14:48:37.948Z,-16
2022-12-25T14:49:43.337Z,-15
2022-12-25T14:50:49.438Z,-16
2022-12-25T14:51:55.876Z,-17
2022-12-25T14:53:01.979Z,-16
2022-12-25T14:54:08.391Z,-15
2022-12-25T14:55:14.549Z,-16
2022-12-25T14:56:21.008Z,-16
2022-12-25T14:57:27.201Z,-15
2022-12-25T14:58:33.455Z,-17
2022-12-25T14:59:39.707Z,-16
2022-12-25T15:00:45.921Z,-16
2022-12-25T15:01:52.153Z,-15
2022-12-25T15:02:58.458Z,-17
2022-12-25T15:04:03.716Z,-17
2022-12-25T15:05:09.988Z,-15
2022-12-25T15:06:16.252Z,-16
2022-12-25T15:07:22.532Z,-15
2022-12-25T15:08:28.816Z,-17
2022-12-25T15:09:35.206Z,-15
2022-12-25T15:10:41.350Z,-15
2022-12-25T15:11:47.636Z,-15
2022-12-25T15:12:54.016Z,-17
2022-12-25T15:14:00.182Z,-17
2022-12-25T15:15:06.437Z,-16
2022-12-25T15:16:12.722Z,-16
2022-12-25T15:17:19.000Z,-16
2022-12-25T15:18:24.288Z,-17
2022-12-25T15:19:30.588Z,-17
2022-12-25T15:20:36.809Z,-18